Time;durP1;ratioP1;P1;durP2;ratioP2;P2;SDS_P1;SDS_P2;PMS_P1;PMS_P2;Temp;Humidity;BMP_temperature;BMP_pressure;BME280_temperature;BME280_humidity;BME280_pressure;Samples;Min_cycle;Max_cycle;Signal;HPM_P1;HPM_P2
2023/05/07 00:00:59;;;;;;;31.20;22.88;;;;;;;9.57;88.95;97888.28;10366512;28;20067;-52
2023/05/07 00:05:58;;;;;;;32.03;23.48;;;;;;;9.78;89.08;97931.56;10367166;28;20523;-52
2023/05/07 00:10:57;;;;;;;37.75;23.75;;;;;;;9.63;89.71;97922.00;10366427;28;20116;-50
2023/05/07 00:15:56;;;;;;;36.63;24.63;;;;;;;9.62;89.47;97927.16;10365936;28;20124;-52
2023/05/07 00:20:55;;;;;;;32.97;24.13;;;;;;;9.57;89.93;97940.09;10366090;28;20059;-52
2023/05/07 00:25:56;;;;;;;29.90;22.15;;;;;;;9.34;91.17;97937.34;10368352;28;20056;-51
2023/05/07 00:30:55;;;;;;;30.45;20.17;;;;;;;9.34;90.50;97934.75;10365197;28;20114;-51
2023/05/07 00:35:54;;;;;;;;;;;;;;;9.32;90.15;97929.59;10365896;28;20057;-51
2023/05/07 00:40:53;;;;;;;28.65;19.70;;;;;;;8.98;89.68;97891.34;10364903;28;19913;-52
2023/05/07 00:45:52;;;;;;;33.45;23.67;;;;;;;9.24;89.77;97938.97;10365274;28;20060;-52
2023/05/07 00:50:51;;;;;;;33.15;23.40;;;;;;;9.22;89.32;97940.69;10367374;28;20049;-52
2023/05/07 00:55:50;;;;;;;31.58;22.55;;;;;;;9.16;90.12;97932.91;10367658;28;20060;-50
2023/05/07 01:00:49;;;;;;;32.70;22.42;;;;;;;9.14;89.99;97932.00;10368638;28;20071;-52
2023/05/07 01:05:50;;;;;;;32.00;22.85;;;;;;;9.03;90.32;97918.13;10368644;28;20061;-49
2023/05/07 01:10:50;;;;;;;33.70;23.17;;;;;;;9.10;90.47;97935.44;10367616;28;20071;-51
2023/05/07 01:15:50;;;;;;;35.25;25.00;;;;;;;8.92;90.42;97916.28;10367219;28;20060;-51
2023/05/07 01:20:49;;;;;;;;;;;;;;;8.94;91.21;97939.59;10367538;28;20072;-52
2023/05/07 01:25:55;;;;;;;29.98;20.30;;;;;;;8.91;90.88;97934.41;10368326;28;19948;-52
2023/05/07 01:30:58;;;;;;;29.35;20.52;;;;;;;8.85;90.92;97924.00;10366318;28;20060;-51
2023/05/07 01:36:00;;;;;;;35.65;22.25;;;;;;;8.79;90.76;97931.72;10366343;28;20136;-51
2023/05/07 01:40:59;;;;;;;30.98;21.10;;;;;;;8.68;91.13;97913.50;10367169;28;20055;-50
2023/05/07 01:46:00;;;;;;;32.30;21.33;;;;;;;8.65;90.84;97919.53;10365141;28;20534;-50
2023/05/07 01:50:59;;;;;;;29.83;21.40;;;;;;;8.26;90.75;97860.53;10362322;28;20140;-51
2023/05/07 01:55:58;;;;;;;30.52;20.65;;;;;;;8.46;91.07;97905.56;10361490;28;20063;-51
2023/05/07 02:00:57;;;;;;;30.75;20.88;;;;;;;8.37;91.15;97908.03;10362764;28;20464;-50
2023/05/07 02:05:56;;;;;;;31.77;20.25;;;;;;;8.32;90.86;97895.91;10361982;28;20219;-51
2023/05/07 02:10:55;;;;;;;30.55;21.13;;;;;;;8.18;91.24;97903.53;10361716;28;20044;-51
2023/05/07 02:15:54;;;;;;;32.95;21.48;;;;;;;8.05;92.01;97908.56;10361419;28;20102;-51
2023/05/07 02:20:53;;;;;;;30.02;21.17;;;;;;;8.04;92.01;97885.28;10361091;28;20485;-51
2023/05/07 02:25:52;;;;;;;31.25;21.23;;;;;;;8.02;91.43;97877.50;10361855;28;20120;-50
2023/05/07 02:30:50;;;;;;;32.03;22.58;;;;;;;8.04;91.78;97874.97;10360385;28;20134;-49
2023/05/07 02:35:51;;;;;;;37.00;23.00;;;;;;;8.00;92.29;97874.03;10361170;28;20541;-52
2023/05/07 02:40:50;;;;;;;31.05;21.83;;;;;;;8.01;92.39;97877.47;10360840;28;20064;-51
2023/05/07 02:45:49;;;;;;;28.15;18.50;;;;;;;7.93;92.95;97877.41;10359780;28;20128;-51
2023/05/07 02:50:48;;;;;;;28.83;20.63;;;;;;;7.94;92.82;97883.44;10360002;28;20136;-51
2023/05/07 02:55:47;;;;;;;32.65;20.30;;;;;;;7.92;92.26;97879.97;10360210;28;20072;-51
2023/05/07 03:00:46;;;;;;;27.48;17.98;;;;;;;7.39;92.94;97821.63;10359873;28;20033;-51
2023/05/07 03:05:45;;;;;;;23.65;17.55;;;;;;;7.82;92.92;97892.78;10360851;28;20494;-51
2023/05/07 03:10:44;;;;;;;28.58;20.98;;;;;;;7.77;92.71;97889.28;10367290;28;20132;-51
2023/05/07 03:15:43;;;;;;;31.10;22.00;;;;;;;7.81;92.68;97892.78;10368507;28;20037;-51
2023/05/07 03:20:42;;;;;;;33.13;22.27;;;;;;;7.77;93.35;97885.81;10368075;28;20120;-51
2023/05/07 03:25:41;;;;;;;38.63;25.40;;;;;;;7.75;94.18;97893.53;10367856;28;20043;-51
2023/05/07 03:30:40;;;;;;;43.33;25.95;;;;;;;7.77;94.82;97896.16;10367769;28;20542;-51
2023/05/07 03:35:39;;;;;;;38.70;25.70;;;;;;;7.79;94.89;97897.91;10367275;28;20111;-51
2023/05/07 03:40:38;;;;;;;43.72;25.38;;;;;;;7.96;95.02;97903.28;10367043;28;20029;-52
2023/05/07 03:45:37;;;;;;;41.63;25.00;;;;;;;8.03;95.53;97911.97;10367810;28;20091;-50
2023/05/07 03:50:36;;;;;;;40.90;25.52;;;;;;;8.19;95.94;97906.13;10366541;28;20403;-51
2023/05/07 03:55:35;;;;;;;92.95;25.65;;;;;;;8.36;96.39;97901.13;10366658;28;20047;-51
2023/05/07 04:00:37;;;;;;;51.75;21.88;;;;;;;8.39;95.85;97874.41;10366049;28;20486;-51
2023/05/07 04:05:36;;;;;;;29.77;21.55;;;;;;;8.85;94.96;97918.81;10366052;28;20064;-51
2023/05/07 04:10:35;;;;;;;33.97;22.95;;;;;;;8.66;94.14;97860.88;10364957;28;20136;-51
2023/05/07 04:15:36;;;;;;;36.33;22.85;;;;;;;9.07;94.03;97925.06;10366659;28;20212;-51
2023/05/07 04:20:36;;;;;;;36.60;22.95;;;;;;;9.24;93.30;97933.81;10365064;28;20553;-50
2023/05/07 04:25:35;;;;;;;34.75;23.50;;;;;;;9.37;92.52;97933.91;10365619;28;20574;-51
2023/05/07 04:30:34;;;;;;;31.30;21.38;;;;;;;9.45;91.54;97943.47;10365789;28;20075;-51
2023/05/07 04:35:33;;;;;;;35.33;23.75;;;;;;;9.51;91.92;97942.63;10364737;28;20091;-51
2023/05/07 04:40:32;;;;;;;27.77;21.58;;;;;;;9.57;92.13;97945.28;10365323;28;20086;-52
2023/05/07 04:45:31;;;;;;;28.15;21.30;;;;;;;9.56;92.26;97952.19;10364618;28;20056;-51
2023/05/07 04:50:31;;;;;;;29.33;21.00;;;;;;;9.55;92.02;97923.66;10364669;28;20131;-51
2023/05/07 04:55:29;;;;;;;;;;;;;;;9.78;92.10;97952.31;10363849;28;20068;-51
2023/05/07 05:00:28;;;;;;;29.95;20.63;;;;;;;9.86;90.55;97929.88;10364649;28;20009;-51
2023/05/07 05:05:27;;;;;;;27.02;19.35;;;;;;;10.01;90.52;97934.28;10363778;28;20119;-52
2023/05/07 05:10:26;;;;;;;25.58;19.08;;;;;;;10.14;91.94;97935.16;10363994;28;20036;-52
2023/05/07 05:15:25;;;;;;;28.65;21.92;;;;;;;10.40;90.73;97933.53;10363400;28;20064;-52
2023/05/07 05:20:24;;;;;;;29.10;20.30;;;;;;;10.46;89.83;97937.88;10363437;28;20124;-52
2023/05/07 05:25:23;;;;;;;29.05;20.75;;;;;;;10.65;89.85;97938.75;10363239;28;20216;-51
2023/05/07 05:30:22;;;;;;;28.38;20.77;;;;;;;10.79;89.22;97947.44;10362817;28;20083;-52
2023/05/07 05:35:21;;;;;;;27.10;18.58;;;;;;;11.02;88.74;97942.28;10362194;28;20137;-52
2023/05/07 05:40:20;;;;;;;20.30;16.35;;;;;;;10.91;87.77;97915.47;10360703;28;20033;-51
2023/05/07 05:45:19;;;;;;;18.40;14.63;;;;;;;11.24;88.13;97957.88;10362618;28;20083;-50
2023/05/07 05:50:18;;;;;;;19.77;15.38;;;;;;;11.34;87.93;97951.81;10362738;28;20040;-51
2023/05/07 05:55:17;;;;;;;17.95;13.40;;;;;;;11.61;87.20;97944.84;10364745;28;20094;-51
2023/05/07 06:00:16;;;;;;;21.25;13.70;;;;;;;11.72;86.82;97952.63;10364013;28;20025;-51
2023/05/07 06:05:15;;;;;;;17.85;13.57;;;;;;;11.92;86.72;97949.94;10362529;28;20060;-51
2023/05/07 06:10:14;;;;;;;16.02;13.70;;;;;;;12.17;85.20;97933.38;10364456;28;20040;-51
2023/05/07 06:15:13;;;;;;;;;;;;;;;12.55;83.82;97940.16;10364686;28;20064;-52
2023/05/07 06:20:12;;;;;;;18.15;11.48;;;;;;;12.84;82.91;97945.19;10364060;28;19947;-52
2023/05/07 06:25:11;;;;;;;15.90;12.68;;;;;;;13.20;80.58;97940.56;10364661;28;20032;-51
2023/05/07 06:30:10;;;;;;;17.88;13.63;;;;;;;13.53;79.52;97933.31;10364274;28;20494;-51
2023/05/07 06:35:09;;;;;;;18.45;14.40;;;;;;;13.63;79.12;97931.50;10364029;28;20065;-51
2023/05/07 06:40:08;;;;;;;;;;;;;;;13.65;77.61;97929.75;10363808;28;20499;-51
2023/05/07 06:45:08;;;;;;;15.63;11.67;;;;;;;13.57;77.92;97886.34;10364168;28;20459;-51
2023/05/07 06:50:08;;;;;;;13.50;10.45;;;;;;;14.03;78.19;97923.22;10359999;28;20120;-52
2023/05/07 06:55:07;;;;;;;12.93;9.13;;;;;;;14.20;76.52;97913.44;10360226;28;20076;-52
2023/05/07 07:00:08;;;;;;;12.65;10.18;;;;;;;14.45;76.27;97908.75;10359264;28;20478;-51
2023/05/07 07:05:07;;;;;;;16.83;10.63;;;;;;;14.61;74.63;97909.38;10357656;28;20128;-52
2023/05/07 07:10:07;;;;;;;11.68;9.00;;;;;;;14.89;72.49;97909.00;10356183;28;20124;-53
2023/05/07 07:15:06;;;;;;;11.77;9.15;;;;;;;15.19;71.66;97913.72;10358061;28;20137;-52
2023/05/07 07:20:06;;;;;;;11.18;8.95;;;;;;;15.43;69.45;97911.56;10360218;28;20504;-52
2023/05/07 07:25:05;;;;;;;11.63;8.15;;;;;;;15.68;68.22;97907.63;10359543;28;20064;-52
2023/05/07 07:30:05;;;;;;;12.30;8.73;;;;;;;15.98;68.71;97909.72;10359244;28;20135;-52
2023/05/07 07:35:05;;;;;;;10.18;7.75;;;;;;;16.33;69.31;97901.13;10359648;28;20143;-52
2023/05/07 07:40:04;;;;;;;11.80;7.63;;;;;;;16.65;67.95;97910.88;10358525;28;20128;-52
2023/05/07 07:45:04;;;;;;;12.73;7.95;;;;;;;16.63;66.80;97911.78;10359161;28;20159;-52
2023/05/07 07:50:03;;;;;;;11.20;6.88;;;;;;;16.92;64.84;97900.66;10359039;28;20087;-52
2023/05/07 07:55:03;;;;;;;8.43;6.50;;;;;;;17.17;62.81;97900.03;10364470;28;20072;-52
2023/05/07 08:00:02;;;;;;;8.95;6.38;;;;;;;17.52;61.57;97896.53;10366090;28;20072;-53
2023/05/07 08:05:01;;;;;;;8.90;6.30;;;;;;;17.59;59.43;97892.84;10366458;28;20602;-53
2023/05/07 08:10:00;;;;;;;9.32;5.68;;;;;;;17.87;56.52;97886.84;10365727;28;20467;-54
2023/05/07 08:14:59;;;;;;;11.13;5.95;;;;;;;18.18;54.48;97892.09;10366172;28;20116;-53
2023/05/07 08:19:58;;;;;;;7.65;5.63;;;;;;;18.46;53.35;97881.63;10365810;28;20045;-53
2023/05/07 08:24:57;;;;;;;7.75;5.70;;;;;;;18.68;53.31;97878.31;10363666;28;20147;-53
2023/05/07 08:29:56;;;;;;;9.55;5.97;;;;;;;18.60;51.18;97887.31;10365306;28;20384;-53
2023/05/07 08:34:55;;;;;;;8.35;5.50;;;;;;;18.86;50.98;97874.28;10365126;28;20057;-53
2023/05/07 08:39:54;;;;;;;6.53;5.40;;;;;;;19.13;51.17;97860.19;10364995;28;20113;-53
2023/05/07 08:44:57;;;;;;;9.77;5.47;;;;;;;19.41;49.45;97864.50;10365086;28;20084;-53
2023/05/07 08:49:56;;;;;;;7.82;5.53;;;;;;;19.50;48.84;97842.28;10365664;28;20442;-53
2023/05/07 08:54:56;;;;;;;9.73;5.38;;;;;;;19.49;50.51;97867.75;10358895;28;20410;-53
2023/05/07 08:59:55;;;;;;;7.32;5.13;;;;;;;19.55;49.96;97854.34;10335456;28;20562;-53
2023/05/07 09:04:54;;;;;;;8.13;5.15;;;;;;;19.77;47.64;97854.50;10362732;28;20115;-53
2023/05/07 09:09:55;;;;;;;5.97;4.65;;;;;;;20.21;46.80;97843.19;10356847;28;20485;-54
2023/05/07 09:14:53;;;;;;;7.15;4.35;;;;;;;20.41;45.25;97835.41;10362968;28;20068;-55
2023/05/07 09:19:53;;;;;;;7.53;4.25;;;;;;;20.60;45.47;97838.16;10365619;28;20036;-54
2023/05/07 09:24:52;;;;;;;5.07;3.63;;;;;;;20.78;42.23;97846.25;10352985;28;20633;-54
2023/05/07 09:29:51;;;;;;;7.80;3.97;;;;;;;20.88;41.63;97829.13;10357191;28;20471;-54
2023/05/07 09:34:50;;;;;;;4.10;2.97;;;;;;;20.97;35.60;97833.19;10359546;28;20128;-54
2023/05/07 09:39:49;;;;;;;5.40;3.47;;;;;;;21.04;38.44;97822.28;10357258;28;20065;-54
2023/05/07 09:44:48;;;;;;;8.30;4.13;;;;;;;21.23;40.12;97821.53;10358938;28;20127;-54
2023/05/07 09:49:48;;;;;;;6.68;3.83;;;;;;;21.42;38.33;97814.53;10362980;28;20056;-54
2023/05/07 09:54:49;;;;;;;6.07;3.80;;;;;;;21.59;38.78;97805.00;10362045;28;20112;-54
2023/05/07 09:59:51;;;;;;;10.90;4.10;;;;;;;21.93;38.52;97802.56;10358005;28;20064;-54
2023/05/07 10:04:50;;;;;;;5.65;3.78;;;;;;;21.80;37.23;97797.91;10363041;28;20490;-54
2023/05/07 10:09:50;;;;;;;6.63;3.80;;;;;;;21.96;39.10;97793.63;10361074;28;20127;-54
2023/05/07 10:14:51;;;;;;;7.95;4.10;;;;;;;22.22;38.09;97781.84;10360857;28;20056;-55
2023/05/07 10:19:53;;;;;;;4.65;4.03;;;;;;;22.27;37.34;97771.94;10360670;28;20064;-55
2023/05/07 10:24:54;;;;;;;5.40;3.78;;;;;;;22.03;36.77;97757.25;10361493;28;20581;-54
2023/05/07 10:30:02;;;;;;;4.85;3.65;;;;;;;22.22;37.39;97768.63;10360643;28;20124;-54
2023/05/07 10:35:06;;;;;;;8.30;3.85;;;;;;;22.30;36.59;97761.22;10360538;28;20068;-54
2023/05/07 10:40:06;;;;;;;6.63;3.95;;;;;;;22.45;35.53;97762.25;10360716;28;20570;-54
2023/05/07 10:45:13;;;;;;;5.25;3.85;;;;;;;22.91;36.03;97746.75;10359762;28;20274;-54
2023/05/07 10:50:12;;;;;;;6.75;4.15;;;;;;;23.13;34.67;97745.66;10363207;28;20478;-54
2023/05/07 10:55:18;;;;;;;6.15;3.83;;;;;;;23.40;35.84;97738.06;10364058;28;20399;-55
2023/05/07 11:00:23;;;;;;;9.32;4.60;;;;;;;23.73;34.47;97723.97;10363305;28;20060;-54
2023/05/07 11:05:23;;;;;;;5.40;3.58;;;;;;;23.95;33.17;97735.06;10363587;28;20064;-54
2023/05/07 11:10:22;;;;;;;5.35;3.63;;;;;;;23.99;32.94;97709.25;10363023;28;20072;-54
2023/05/07 11:15:50;;;;;;;6.10;3.85;;;;;;;24.20;33.84;97696.63;10363329;28;20057;-54
2023/05/07 11:20:51;;;;;;;7.68;3.78;;;;;;;24.09;31.47;97738.75;10357256;28;20507;-55
2023/05/07 11:25:50;;;;;;;6.15;3.28;;;;;;;24.26;31.23;97726.28;10364163;28;20048;-55
2023/05/07 11:30:49;;;;;;;8.00;3.47;;;;;;;24.25;31.13;97736.97;10369847;28;20113;-55
2023/05/07 11:35:50;;;;;;;5.93;3.35;;;;;;;23.60;30.36;97734.34;10370818;28;20060;-54
2023/05/07 11:40:55;;;;;;;4.78;3.70;;;;;;;23.85;32.60;97710.03;10371136;28;20053;-54
2023/05/07 11:45:54;;;;;;;4.13;3.22;;;;;;;23.63;32.50;97718.28;10369958;28;20061;-54
2023/05/07 11:51:04;;;;;;;6.47;3.70;;;;;;;23.78;32.21;97720.09;10366249;28;20590;-54
2023/05/07 11:56:08;;;;;;;4.88;3.80;;;;;;;23.79;31.58;97703.25;10366435;28;20076;-54
2023/05/07 12:01:11;;;;;;;4.95;3.40;;;;;;;23.87;32.00;97710.78;10364375;28;20131;-55
2023/05/07 12:06:12;;;;;;;4.85;3.30;;;;;;;23.81;30.05;97692.56;10366179;28;20127;-54
2023/05/07 12:11:23;;;;;;;4.20;3.30;;;;;;;24.32;30.07;97698.56;10366309;28;20502;-54
2023/05/07 12:16:23;;;;;;;5.70;3.67;;;;;;;24.65;30.20;97700.19;10368208;28;20079;-54
2023/05/07 12:21:23;;;;;;;5.35;3.50;;;;;;;24.45;30.20;97694.25;10365925;28;20128;-55
2023/05/07 12:26:22;;;;;;;11.00;4.65;;;;;;;24.37;30.48;97688.53;10366005;28;20068;-55
2023/05/07 12:31:21;;;;;;;7.25;3.67;;;;;;;24.34;29.83;97643.63;10366160;28;20080;-55
2023/05/07 12:36:21;;;;;;;5.45;3.72;;;;;;;24.77;30.40;97682.69;10365991;28;20228;-55
2023/05/07 12:41:25;;;;;;;10.50;6.88;;;;;;;25.01;30.10;97683.03;10365388;28;20124;-55
2023/05/07 12:46:24;;;;;;;6.32;4.28;;;;;;;24.37;30.15;97608.97;10365597;28;20167;-55
2023/05/07 12:51:23;;;;;;;7.13;4.38;;;;;;;24.97;30.04;97673.56;10366033;28;20452;-55
2023/05/07 12:56:23;;;;;;;7.80;4.75;;;;;;;25.19;30.23;97663.31;10367819;28;20072;-54
2023/05/07 13:01:23;;;;;;;9.93;4.22;;;;;;;25.12;30.36;97659.34;10367511;28;20068;-55
2023/05/07 13:06:22;;;;;;;8.35;4.78;;;;;;;25.04;29.89;97640.38;10367462;28;20076;-55
2023/05/07 13:11:22;;;;;;;5.47;3.30;;;;;;;25.07;29.49;97645.50;10367075;28;20021;-55
2023/05/07 13:16:21;;;;;;;8.90;5.72;;;;;;;25.07;29.60;97646.34;10371167;28;20061;-56
2023/05/07 13:21:20;;;;;;;6.13;3.42;;;;;;;25.00;29.40;97647.66;10367218;28;20068;-55
2023/05/07 13:26:20;;;;;;;5.72;3.97;;;;;;;24.94;30.60;97639.22;10366745;28;20040;-55
2023/05/07 13:31:20;;;;;;;5.93;3.92;;;;;;;24.87;30.53;97633.41;10366215;28;20075;-56
2023/05/07 13:36:19;;;;;;;5.82;3.50;;;;;;;24.93;29.50;97600.34;10366479;28;20079;-55
2023/05/07 13:41:18;;;;;;;5.72;3.40;;;;;;;24.94;29.83;97634.75;10367460;28;20482;-56
2023/05/07 13:46:17;;;;;;;6.13;4.07;;;;;;;24.63;29.90;97631.28;10364305;28;20143;-55
2023/05/07 13:51:16;;;;;;;9.80;3.92;;;;;;;24.84;31.12;97623.81;10360294;28;20048;-55
2023/05/07 13:56:15;;;;;;;6.72;3.83;;;;;;;24.63;30.67;97623.31;10364513;28;20076;-55
2023/05/07 14:01:14;;;;;;;5.57;3.40;;;;;;;24.62;31.41;97618.13;10355341;28;20115;-55
2023/05/07 14:06:13;;;;;;;14.52;6.63;;;;;;;24.72;31.65;97634.34;10356682;28;20139;-55
2023/05/07 14:11:12;;;;;;;7.18;3.72;;;;;;;24.71;31.28;97633.50;10356761;28;20120;-55
2023/05/07 14:16:11;;;;;;;7.30;4.13;;;;;;;24.64;30.76;97621.53;10359239;28;20135;-55
2023/05/07 14:21:10;;;;;;;5.25;3.45;;;;;;;24.79;30.20;97643.63;10360341;28;20064;-55
2023/05/07 14:26:09;;;;;;;5.68;3.78;;;;;;;24.40;30.98;97624.72;10366321;28;20032;-55
2023/05/07 14:31:08;;;;;;;5.43;3.45;;;;;;;24.53;31.50;97645.19;10361819;28;20127;-56
2023/05/07 14:36:07;;;;;;;4.32;3.63;;;;;;;24.51;31.71;97641.78;10361221;28;20035;-55
2023/05/07 14:41:06;;;;;;;5.57;3.97;;;;;;;24.20;33.00;97635.63;10360842;28;20060;-55
2023/05/07 14:46:05;;;;;;;3.90;3.13;;;;;;;24.25;33.05;97633.56;10359815;28;20544;-55
2023/05/07 14:51:04;;;;;;;10.10;4.07;;;;;;;24.10;33.72;97634.41;10358389;28;20045;-55
2023/05/07 14:56:03;;;;;;;6.25;3.60;;;;;;;24.04;32.97;97633.81;10359495;28;20145;-55
2023/05/07 15:01:03;;;;;;;6.30;3.45;;;;;;;23.95;33.51;97633.50;10359510;28;20076;-55
2023/05/07 15:06:02;;;;;;;4.22;2.92;;;;;;;24.17;33.47;97639.28;10357997;28;20502;-55
2023/05/07 15:11:01;;;;;;;4.38;3.30;;;;;;;24.06;32.71;97642.53;10364406;28;20463;-55
2023/05/07 15:16:00;;;;;;;5.32;3.60;;;;;;;24.05;33.44;97629.38;10357513;28;20410;-55
2023/05/07 15:21:00;;;;;;;5.05;3.30;;;;;;;23.89;32.85;97604.69;10358900;28;20032;-55
2023/05/07 15:25:59;;;;;;;7.75;3.17;;;;;;;23.75;33.52;97632.84;10357011;28;20111;-55
2023/05/07 15:30:58;;;;;;;4.72;3.13;;;;;;;23.57;33.88;97634.72;10359275;28;20168;-55
2023/05/07 15:35:58;;;;;;;4.05;2.90;;;;;;;23.42;33.87;97635.56;10363208;28;20041;-55
2023/05/07 15:40:57;;;;;;;4.95;3.30;;;;;;;23.35;34.67;97631.50;10359131;28;20119;-55
2023/05/07 15:45:56;;;;;;;5.40;3.33;;;;;;;23.29;34.71;97634.50;10359541;28;20418;-55
2023/05/07 15:50:55;;;;;;;5.43;3.08;;;;;;;23.38;34.87;97624.25;10359327;28;20136;-55
2023/05/07 15:55:54;;;;;;;5.15;3.30;;;;;;;23.25;34.19;97627.66;10362826;28;20037;-55
2023/05/07 16:00:53;;;;;;;5.85;3.42;;;;;;;23.17;34.48;97628.94;10366385;28;20369;-55
2023/05/07 16:05:52;;;;;;;9.48;4.10;;;;;;;23.01;34.91;97634.19;10369547;28;20048;-55
2023/05/07 16:10:51;;;;;;;9.95;3.38;;;;;;;22.83;35.00;97631.66;10366377;28;20068;-55
2023/05/07 16:15:58;;;;;;;5.00;3.33;;;;;;;22.73;35.28;97626.81;10369009;28;20119;-54
2023/05/07 16:20:59;;;;;;;6.47;3.80;;;;;;;22.56;35.71;97619.75;10371045;28;20064;-55
2023/05/07 16:25:58;;;;;;;4.85;3.35;;;;;;;22.43;35.62;97623.09;10371860;28;20072;-55
2023/05/07 16:30:57;;;;;;;5.78;3.88;;;;;;;22.24;35.57;97621.41;10371905;28;20398;-54
2023/05/07 16:35:56;;;;;;;6.25;4.07;;;;;;;22.09;36.12;97614.25;10375874;28;20129;-55
2023/05/07 16:40:55;;;;;;;6.03;3.38;;;;;;;22.26;36.27;97640.69;10371094;28;20150;-55
2023/05/07 16:45:53;;;;;;;5.47;3.90;;;;;;;22.14;36.69;97646.59;10372418;28;20031;-54
2023/05/07 16:50:52;;;;;;;6.18;3.80;;;;;;;21.92;37.07;97639.69;10369516;28;20041;-54
2023/05/07 16:55:55;;;;;;;6.50;3.78;;;;;;;21.78;37.43;97652.72;10368254;28;20039;-54
2023/05/07 17:00:54;;;;;;;5.63;3.40;;;;;;;21.57;37.69;97654.59;10369198;28;20080;-54
2023/05/07 17:05:53;;;;;;;6.13;4.60;;;;;;;21.37;37.59;97658.13;10369004;28;20053;-54
2023/05/07 17:10:52;;;;;;;10.45;4.60;;;;;;;21.07;38.19;97666.47;10368304;28;20477;-54
2023/05/07 17:15:51;;;;;;;7.50;4.57;;;;;;;20.95;37.91;97667.03;10366476;28;20410;-54
2023/05/07 17:20:51;;;;;;;13.75;5.80;;;;;;;20.88;38.02;97676.16;10360257;28;20159;-54
2023/05/07 17:25:50;;;;;;;8.68;5.03;;;;;;;20.77;40.02;97681.03;10361011;28;20064;-55
2023/05/07 17:30:49;;;;;;;9.32;5.93;;;;;;;20.24;43.32;97675.28;10363553;28;20143;-53
2023/05/07 17:35:48;;;;;;;14.93;5.65;;;;;;;20.07;43.85;97699.69;10360958;28;20142;-54
2023/05/07 17:40:47;;;;;;;13.00;6.07;;;;;;;19.85;44.83;97694.41;10362135;28;20075;-53
2023/05/07 17:45:47;;;;;;;12.30;6.10;;;;;;;19.66;45.63;97701.31;10360866;28;20064;-53
2023/05/07 17:50:46;;;;;;;10.63;6.00;;;;;;;19.40;46.17;97695.25;10362267;28;20144;-53
2023/05/07 17:55:45;;;;;;;10.88;6.30;;;;;;;19.16;46.58;97704.91;10361607;28;20431;-54
2023/05/07 18:00:44;;;;;;;11.75;6.93;;;;;;;18.96;47.48;97708.22;10362718;28;20083;-53
2023/05/07 18:05:43;;;;;;;18.08;8.05;;;;;;;18.79;47.71;97716.72;10362156;28;20053;-53
2023/05/07 18:10:42;;;;;;;12.95;6.78;;;;;;;18.64;48.47;97721.59;10361427;28;20132;-53
2023/05/07 18:15:41;;;;;;;16.08;8.05;;;;;;;18.42;48.93;97716.22;10361762;28;20055;-53
2023/05/07 18:20:40;;;;;;;11.25;7.10;;;;;;;18.19;49.50;97730.97;10362130;28;20071;-53
2023/05/07 18:25:39;;;;;;;9.40;5.60;;;;;;;17.96;49.86;97737.81;10360771;28;20053;-53
2023/05/07 18:30:38;;;;;;;8.38;4.85;;;;;;;17.80;49.92;97740.94;10361123;28;20564;-53
2023/05/07 18:35:37;;;;;;;7.95;4.95;;;;;;;17.52;50.03;97724.22;10361986;28;20392;-53
2023/05/07 18:40:36;;;;;;;9.43;4.40;;;;;;;17.18;50.81;97711.22;10359490;28;20029;-53
2023/05/07 18:45:36;;;;;;;7.75;4.88;;;;;;;17.13;51.08;97732.31;10360425;28;20534;-53
2023/05/07 18:50:35;;;;;;;6.57;4.53;;;;;;;17.17;50.98;97753.19;10358937;28;20136;-55
2023/05/07 18:55:34;;;;;;;12.43;6.50;;;;;;;17.12;51.17;97766.44;10360775;28;20043;-51
2023/05/07 19:00:33;;;;;;;11.45;4.90;;;;;;;16.95;52.10;97768.66;10360113;28;20552;-51
2023/05/07 19:05:32;;;;;;;7.18;4.32;;;;;;;16.81;52.32;97772.50;10360081;28;20060;-51
2023/05/07 19:10:31;;;;;;;6.40;4.60;;;;;;;16.77;52.51;97765.59;10359192;28;20039;-51
2023/05/07 19:15:30;;;;;;;7.43;4.40;;;;;;;16.60;52.72;97776.47;10358480;28;20064;-51
2023/05/07 19:20:29;;;;;;;7.07;4.60;;;;;;;16.34;53.08;97756.16;10359516;28;20068;-51
2023/05/07 19:25:28;;;;;;;9.82;5.72;;;;;;;16.44;53.62;97778.63;10359772;28;20033;-51
2023/05/07 19:30:27;;;;;;;;;;;;;;;16.29;55.15;97786.84;10353979;28;20031;-51
2023/05/07 19:35:26;;;;;;;13.90;6.33;;;;;;;16.11;56.73;97789.88;10357818;28;19912;-51
2023/05/07 19:40:25;;;;;;;;;;;;;;;15.89;57.39;97800.84;10356873;28;20507;-51
2023/05/07 19:45:23;;;;;;;12.80;6.83;;;;;;;15.82;58.00;97805.34;10357888;28;19978;-51
2023/05/07 19:50:22;;;;;;;12.32;7.47;;;;;;;15.60;59.83;97799.66;10364784;28;20522;-51
2023/05/07 19:55:21;;;;;;;;;;;;;;;15.43;60.98;97789.53;10368455;28;20439;-50
2023/05/07 20:00:20;;;;;;;18.67;7.83;;;;;;;15.33;61.22;97800.22;10365970;28;19936;-51
2023/05/07 20:05:20;;;;;;;14.85;7.78;;;;;;;15.23;62.39;97800.38;10366898;28;20641;-49
2023/05/07 20:10:19;;;;;;;10.00;7.50;;;;;;;15.11;62.29;97808.47;10366501;28;20540;-51
2023/05/07 20:15:18;;;;;;;16.77;8.55;;;;;;;14.97;62.84;97811.31;10366900;28;20067;-51
2023/05/07 20:20:17;;;;;;;11.00;7.60;;;;;;;14.90;63.07;97816.69;10365848;28;20112;-51
2023/05/07 20:25:16;;;;;;;13.45;8.88;;;;;;;14.79;63.52;97822.94;10366441;28;20087;-51
2023/05/07 20:30:15;;;;;;;;;;;;;;;14.72;64.05;97823.94;10366065;28;20028;-50
2023/05/07 20:35:14;;;;;;;13.50;8.20;;;;;;;14.26;64.12;97780.22;10366000;28;20035;-51
2023/05/07 20:40:13;;;;;;;17.65;8.93;;;;;;;14.53;64.50;97833.78;10365250;28;20127;-49
2023/05/07 20:45:12;;;;;;;;;;;;;;;14.47;64.90;97827.78;10365685;28;20044;-51
2023/05/07 20:50:11;;;;;;;15.82;8.70;;;;;;;14.41;65.38;97834.84;10369540;28;20361;-50
2023/05/07 20:55:10;;;;;;;11.25;7.55;;;;;;;14.34;66.11;97835.81;10369081;28;20120;-52
2023/05/07 21:00:09;;;;;;;;;;;;;;;14.26;67.05;97823.75;10367912;28;20540;-52
2023/05/07 21:05:08;;;;;;;14.00;8.52;;;;;;;14.13;67.97;97830.91;10368615;28;19920;-51
2023/05/07 21:10:07;;;;;;;;;;;;;;;14.11;68.35;97830.06;10368376;28;20064;-51
2023/05/07 21:15:06;;;;;;;16.73;9.27;;;;;;;14.10;68.87;97828.31;10368213;28;19943;-51
2023/05/07 21:20:06;;;;;;;16.83;11.45;;;;;;;13.98;71.08;97818.91;10366867;28;20052;-52
2023/05/07 21:25:05;;;;;;;17.75;11.23;;;;;;;13.87;71.44;97816.47;10367331;28;20064;-51
2023/05/07 21:30:05;;;;;;;20.25;12.73;;;;;;;13.83;71.78;97820.00;10366183;28;20076;-51
2023/05/07 21:35:05;;;;;;;17.85;11.60;;;;;;;13.67;72.50;97821.06;10366079;28;20118;-52
2023/05/07 21:40:05;;;;;;;19.45;12.20;;;;;;;13.48;73.29;97825.59;10367305;28;20060;-52
2023/05/07 21:45:05;;;;;;;15.20;10.60;;;;;;;13.29;73.54;97828.41;10365757;28;20100;-52
2023/05/07 21:50:04;;;;;;;16.48;9.95;;;;;;;13.29;73.31;97822.34;10362154;28;20574;-52
2023/05/07 21:55:03;;;;;;;13.50;9.43;;;;;;;13.27;74.03;97834.53;10362432;28;20060;-52
2023/05/07 22:00:03;;;;;;;12.50;9.25;;;;;;;13.02;75.28;97828.69;10361287;28;20120;-51
2023/05/07 22:05:02;;;;;;;14.63;9.65;;;;;;;12.79;75.60;97821.06;10361565;28;20083;-52
2023/05/07 22:10:01;;;;;;;;;;;;;;;12.89;75.51;97833.16;10360201;28;20132;-52
2023/05/07 22:15:00;;;;;;;12.98;9.00;;;;;;;12.77;76.25;97836.75;10357569;28;19917;-52
2023/05/07 22:19:59;;;;;;;;;;;;;;;12.64;76.76;97842.91;10359076;28;20147;-52
2023/05/07 22:24:57;;;;;;;13.05;9.07;;;;;;;12.65;76.73;97835.09;10359111;28;19916;-51
2023/05/07 22:29:56;;;;;;;14.25;8.80;;;;;;;12.60;77.84;97831.69;10363348;28;20337;-51
2023/05/07 22:34:55;;;;;;;13.85;9.27;;;;;;;12.54;78.38;97826.50;10361149;28;20045;-52
2023/05/07 22:39:54;;;;;;;12.15;9.07;;;;;;;12.45;78.35;97826.56;10361093;28;20553;-52
2023/05/07 22:44:55;;;;;;;14.60;8.63;;;;;;;12.42;78.69;97829.22;10361504;28;20487;-52
2023/05/07 22:49:54;;;;;;;13.55;8.88;;;;;;;12.33;79.12;97821.47;10360498;28;20060;-51
2023/05/07 22:54:52;;;;;;;;;;;;;;;12.21;79.66;97812.81;10361372;28;20154;-52
2023/05/07 22:59:55;;;;;;;13.05;9.23;;;;;;;12.10;81.04;97814.63;10360119;28;20418;-50
2023/05/07 23:04:58;;;;;;;13.63;10.57;;;;;;;12.06;81.14;97810.31;10360587;28;20049;-52
2023/05/07 23:09:57;;;;;;;18.17;10.63;;;;;;;12.03;81.62;97802.53;10361292;28;20107;-51